Time;durP1;ratioP1;P1;durP2;ratioP2;P2;SDS_P1;SDS_P2;PMS_P1;PMS_P2;Temp;Humidity;BMP_temperature;BMP_pressure;BME280_temperature;BME280_humidity;BME280_pressure;Samples;Min_cycle;Max_cycle;Signal;HPM_P1;HPM_P2
2021/03/01 00:02:17;;;;;;;12.47;8.43;;;;;;;3.33;65.98;101780.16;5050186;28;20033;-69
2021/03/01 00:04:42;;;;;;;13.83;8.33;;;;;;;3.37;65.92;101769.44;5049793;28;20072;-70
2021/03/01 00:07:09;;;;;;;13.27;8.63;;;;;;;3.30;65.19;101761.13;5050326;28;20052;-69
2021/03/01 00:09:34;;;;;;;15.77;9.63;;;;;;;3.21;65.24;101766.31;5050540;28;20025;-70
2021/03/01 00:12:00;;;;;;;15.53;8.97;;;;;;;3.01;65.92;101755.25;5050299;28;20025;-70
2021/03/01 00:14:25;;;;;;;14.73;9.07;;;;;;;2.85;66.25;101757.22;5049808;28;20039;-68
2021/03/01 00:16:51;;;;;;;13.03;8.90;;;;;;;2.53;67.00;101740.84;5049418;28;20048;-69
2021/03/01 00:19:16;;;;;;;14.47;9.03;;;;;;;2.44;67.78;101742.53;5049789;28;20040;-69
2021/03/01 00:21:42;;;;;;;11.67;8.30;;;;;;;2.56;67.41;101733.44;5052723;28;20483;-67
2021/03/01 00:24:08;;;;;;;14.83;9.17;;;;;;;2.69;67.63;101743.09;5052144;28;20021;-69
2021/03/01 00:26:33;;;;;;;13.80;8.80;;;;;;;2.51;66.96;101708.31;5049615;28;20483;-68
2021/03/01 00:28:58;;;;;;;15.47;9.43;;;;;;;2.85;66.82;101747.00;5052596;28;20025;-69
2021/03/01 00:31:24;;;;;;;18.50;9.73;;;;;;;2.79;66.21;101718.41;5049734;28;20531;-69
2021/03/01 00:33:49;;;;;;;12.47;8.50;;;;;;;2.69;66.15;101721.78;5049988;28;20418;-69
2021/03/01 00:36:15;;;;;;;14.40;8.10;;;;;;;2.28;67.27;101724.06;5058134;28;20499;-69
2021/03/01 00:38:40;;;;;;;11.50;7.70;;;;;;;2.20;67.09;101723.38;5058802;28;20054;-65
2021/03/01 00:41:06;;;;;;;12.53;7.93;;;;;;;2.01;67.72;101688.59;5054198;28;20032;-73
2021/03/01 00:43:34;;;;;;;12.33;7.67;;;;;;;2.34;67.37;101730.63;5050373;28;20029;-71
2021/03/01 00:46:00;;;;;;;11.93;8.13;;;;;;;2.41;67.71;101729.53;5056555;28;20055;-71
2021/03/01 00:48:26;;;;;;;14.20;8.43;;;;;;;2.51;67.34;101732.13;5060772;28;20127;-69
2021/03/01 00:50:52;;;;;;;11.30;7.57;;;;;;;2.45;66.75;101717.97;5056771;28;20029;-75
2021/03/01 00:53:25;;;;;;;13.27;8.40;;;;;;;2.48;67.30;101723.31;5053910;28;20039;-72
2021/03/01 00:55:51;;;;;;;11.80;7.77;;;;;;;2.52;67.05;101723.75;5053705;28;20070;-74
2021/03/01 00:58:18;;;;;;;11.27;7.27;;;;;;;2.57;66.91;101729.25;5053991;28;20402;-72
2021/03/01 01:00:48;;;;;;;9.90;7.17;;;;;;;2.09;67.84;101705.50;5053734;28;20057;-69
2021/03/01 01:03:15;;;;;;;;;;;;;;;2.02;68.76;101720.97;5054420;28;20102;-69
2021/03/01 01:05:40;;;;;;;13.97;7.77;;;;;;;2.03;68.18;101709.09;5053696;28;19923;-69
2021/03/01 01:08:07;;;;;;;12.17;8.17;;;;;;;2.01;68.34;101718.28;5053844;28;20025;-69
2021/03/01 01:10:33;;;;;;;15.83;8.97;;;;;;;1.96;68.36;101720.41;5054035;28;20040;-70
2021/03/01 01:12:59;;;;;;;12.60;8.90;;;;;;;2.10;68.44;101722.53;5053635;28;20029;-69
2021/03/01 01:15:25;;;;;;;13.07;8.53;;;;;;;2.05;67.80;101690.66;5061452;28;20490;-67
2021/03/01 01:17:50;;;;;;;13.97;8.73;;;;;;;2.18;67.75;101700.34;5063170;28;20082;-70
2021/03/01 01:20:16;;;;;;;11.40;8.30;;;;;;;2.16;67.31;101690.75;5059689;28;20467;-67
2021/03/01 01:22:42;;;;;;;14.63;8.90;;;;;;;2.33;66.90;101699.91;5061792;28;20036;-69
2021/03/01 01:25:10;;;;;;;16.17;8.77;;;;;;;2.39;66.08;101698.81;5044262;28;20103;-68
2021/03/01 01:27:36;;;;;;;13.10;9.13;;;;;;;2.22;66.27;101683.66;5062790;28;20025;-72
2021/03/01 01:30:03;;;;;;;12.63;7.83;;;;;;;2.22;66.65;101694.75;5065560;28;20107;-73
2021/03/01 01:32:28;;;;;;;15.13;8.47;;;;;;;2.21;66.51;101686.97;5063234;28;20017;-69
2021/03/01 01:34:54;;;;;;;13.17;9.30;;;;;;;2.00;66.98;101653.69;5065681;28;20090;-72
2021/03/01 01:37:19;;;;;;;13.67;8.00;;;;;;;2.21;66.76;101672.56;5062368;28;20028;-71
2021/03/01 01:39:45;;;;;;;13.93;8.50;;;;;;;2.14;67.08;101659.13;5060597;28;20468;-71
2021/03/01 01:42:10;;;;;;;16.17;8.47;;;;;;;2.15;67.23;101660.94;5061969;28;20455;-74
2021/03/01 01:44:36;;;;;;;15.43;11.33;;;;;;;2.25;67.02;101682.25;5062081;28;20032;-72
2021/03/01 01:47:01;;;;;;;14.00;9.97;;;;;;;2.24;67.40;101674.50;5060878;28;20479;-72
2021/03/01 01:49:27;;;;;;;15.57;10.23;;;;;;;2.15;67.52;101671.13;5052737;28;20466;-76
2021/03/01 01:51:53;;;;;;;14.10;9.37;;;;;;;2.03;67.68;101664.16;5052415;28;20025;-73
2021/03/01 01:54:19;;;;;;;14.60;9.80;;;;;;;1.78;68.27;101654.31;5052595;28;20029;-71
2021/03/01 01:56:45;;;;;;;14.07;9.60;;;;;;;1.69;68.02;101644.91;5052757;28;20032;-70
2021/03/01 01:59:10;;;;;;;17.53;9.80;;;;;;;1.75;68.13;101651.47;5052102;28;20021;-71
2021/03/01 02:01:36;;;;;;;13.57;8.93;;;;;;;1.70;67.92;101629.78;5052398;28;20025;-72
2021/03/01 02:04:14;;;;;;;14.87;9.43;;;;;;;1.98;67.38;101657.78;5057403;28;20051;-69
2021/03/01 02:06:55;;;;;;;12.17;8.20;;;;;;;1.92;67.50;101654.66;5052582;28;20036;-71
2021/03/01 02:09:29;;;;;;;13.77;8.10;;;;;;;1.71;67.09;101606.13;5052286;28;20021;-71
2021/03/01 02:12:04;;;;;;;13.50;9.20;;;;;;;1.71;67.02;101625.59;5034650;28;20032;-67
2021/03/01 02:14:34;;;;;;;12.80;8.07;;;;;;;1.84;66.77;101663.25;5052048;28;20116;-70
2021/03/01 02:17:00;;;;;;;13.13;8.60;;;;;;;1.67;67.39;101652.44;5052476;28;20116;-69
2021/03/01 02:19:26;;;;;;;15.83;8.47;;;;;;;1.78;66.97;101656.84;5052702;28;20472;-68
2021/03/01 02:21:52;;;;;;;13.57;9.00;;;;;;;1.74;66.61;101636.06;5034708;28;20075;-69
2021/03/01 02:24:24;;;;;;;15.80;9.70;;;;;;;1.61;66.56;101611.13;5051150;28;20028;-70
2021/03/01 02:26:51;;;;;;;14.40;9.47;;;;;;;1.64;66.91;101616.50;5052142;28;20044;-70
2021/03/01 02:29:21;;;;;;;14.17;9.20;;;;;;;1.73;66.65;101637.72;5051670;28;20025;-68
2021/03/01 02:31:47;;;;;;;;;;;;;;;1.71;66.98;101649.41;5033968;28;20043;-70
2021/03/01 02:34:18;;;;;;;15.87;9.47;;;;;;;1.65;67.43;101642.88;5051721;28;19917;-70
2021/03/01 02:36:50;;;;;;;15.10;10.60;;;;;;;1.62;67.69;101643.47;5051264;28;20058;-70
2021/03/01 02:39:19;;;;;;;17.10;11.30;;;;;;;1.29;68.04;101601.44;5055277;28;20040;-69
2021/03/01 02:41:47;;;;;;;17.30;10.97;;;;;;;1.60;68.54;101643.31;5051826;28;20032;-70
2021/03/01 02:44:13;;;;;;;16.47;10.37;;;;;;;1.48;68.46;101641.28;5051938;28;20267;-68
2021/03/01 02:46:40;;;;;;;15.93;10.23;;;;;;;1.33;69.05;101654.38;5054647;28;20486;-67
2021/03/01 02:49:10;;;;;;;16.13;10.27;;;;;;;1.16;69.55;101654.44;5050121;28;20118;-68
2021/03/01 02:51:39;;;;;;;17.13;10.57;;;;;;;1.15;70.12;101652.66;5052134;28;20464;-68
2021/03/01 02:54:05;;;;;;;18.07;11.00;;;;;;;1.04;69.97;101629.66;5051473;28;20402;-68
2021/03/01 02:56:32;;;;;;;21.77;11.50;;;;;;;1.05;70.18;101639.09;5051881;28;20483;-68
2021/03/01 02:58:58;;;;;;;17.53;10.63;;;;;;;1.00;70.46;101634.31;5051755;28;20033;-70
2021/03/01 03:01:26;;;;;;;17.73;11.43;;;;;;;1.06;70.81;101640.88;5051791;28;20061;-74
2021/03/01 03:03:52;;;;;;;16.20;10.80;;;;;;;1.18;70.34;101647.88;5051645;28;20075;-68
2021/03/01 03:06:21;;;;;;;16.43;11.23;;;;;;;0.94;70.88;101624.47;5051260;28;20025;-72
2021/03/01 03:08:48;;;;;;;19.92;12.63;;;;;;;1.04;71.09;101632.22;5051846;28;20118;-70
2021/03/01 03:11:17;;;;;;;20.13;13.27;;;;;;;1.13;71.11;101653.44;5051291;28;20491;-68
2021/03/01 03:13:44;;;;;;;21.38;13.00;;;;;;;0.69;71.16;101572.97;5051707;28;20428;-69
2021/03/01 03:16:10;;;;;;;20.03;13.47;;;;;;;1.04;71.73;101639.84;5051220;28;20029;-70
2021/03/01 03:18:39;;;;;;;19.40;12.93;;;;;;;1.05;71.98;101633.13;5051486;28;20025;-71
2021/03/01 03:21:04;;;;;;;18.10;12.40;;;;;;;1.18;71.37;101652.97;5051750;28;20104;-70
2021/03/01 03:23:30;;;;;;;19.37;12.57;;;;;;;1.18;71.32;101647.88;5051469;28;20155;-67
2021/03/01 03:25:55;;;;;;;16.93;12.00;;;;;;;1.32;70.76;101651.69;5051291;28;20029;-72
2021/03/01 03:28:21;;;;;;;21.10;12.80;;;;;;;1.37;69.96;101641.22;5051131;28;20040;-71
2021/03/01 03:30:47;;;;;;;102.93;39.83;;;;;;;1.44;69.38;101640.13;5050963;28;20025;-70
2021/03/01 03:33:12;;;;;;;22.03;13.97;;;;;;;1.47;69.31;101652.22;5033403;28;20124;-70
2021/03/01 03:35:38;;;;;;;25.40;15.30;;;;;;;1.50;69.41;101648.31;5051264;28;20029;-73
2021/03/01 03:38:09;;;;;;;27.07;15.10;;;;;;;1.40;69.59;101630.41;5050998;28;20071;-70
2021/03/01 03:40:37;;;;;;;27.27;15.87;;;;;;;1.48;69.66;101644.72;5051114;28;20021;-70
2021/03/01 03:43:04;;;;;;;25.53;15.17;;;;;;;1.37;69.20;101635.22;5032592;28;20045;-70
2021/03/01 03:45:30;;;;;;;24.53;14.50;;;;;;;1.09;69.59;101640.28;5050412;28;20053;-68
2021/03/01 03:48:01;;;;;;;22.60;13.70;;;;;;;0.88;70.60;101647.66;5050901;28;20090;-71
2021/03/01 03:50:28;;;;;;;22.70;14.50;;;;;;;1.05;70.59;101644.19;5066706;28;20025;-71
2021/03/01 03:52:58;;;;;;;20.67;13.70;;;;;;;1.07;70.97;101651.94;5071550;28;20029;-70
2021/03/01 03:55:26;;;;;;;21.93;15.10;;;;;;;0.85;71.27;101615.97;5070899;28;20029;-70
2021/03/01 03:57:58;;;;;;;22.30;14.90;;;;;;;0.73;71.41;101614.06;5070976;28;20524;-68
2021/03/01 04:00:27;;;;;;;18.37;12.80;;;;;;;0.69;71.90;101614.53;5071317;28;20115;-70
2021/03/01 04:02:56;;;;;;;20.17;14.13;;;;;;;0.89;71.68;101653.66;5070688;28;20028;-68
2021/03/01 04:05:23;;;;;;;19.20;11.90;;;;;;;0.71;72.12;101617.22;5071592;28;20029;-70
2021/03/01 04:07:51;;;;;;;19.77;13.67;;;;;;;1.05;71.52;101672.16;5071137;28;20024;-71
2021/03/01 04:10:16;;;;;;;21.17;14.80;;;;;;;1.10;71.24;101653.13;5035833;28;20047;-68
2021/03/01 04:12:46;;;;;;;20.53;13.50;;;;;;;0.99;70.17;101650.34;5070522;28;20028;-70
2021/03/01 04:15:14;;;;;;;23.58;14.65;;;;;;;0.73;71.36;101636.94;5070773;28;20431;-71
2021/03/01 04:17:42;;;;;;;22.40;14.83;;;;;;;0.74;72.28;101643.81;5052793;28;20032;-70
2021/03/01 04:20:10;;;;;;;22.10;15.67;;;;;;;0.65;72.40;101627.69;5071103;28;20051;-71
2021/03/01 04:22:37;;;;;;;21.90;15.17;;;;;;;0.58;72.16;101617.69;5070713;28;20028;-74
2021/03/01 04:25:06;;;;;;;20.97;14.17;;;;;;;0.67;72.61;101649.06;5056525;28;20107;-69
2021/03/01 04:27:33;;;;;;;22.10;15.00;;;;;;;0.39;72.79;101625.22;5073535;28;20039;-68
2021/03/01 04:30:01;;;;;;;20.47;14.73;;;;;;;0.54;73.62;101658.81;5074794;28;20082;-68
2021/03/01 04:32:28;;;;;;;27.77;17.83;;;;;;;0.28;74.03;101650.44;5074483;28;20478;-70
2021/03/01 04:34:53;;;;;;;24.70;17.50;;;;;;;-0.05;75.27;101607.41;5074654;28;20020;-70
2021/03/01 04:37:19;;;;;;;25.30;16.87;;;;;;;0.11;75.86;101630.13;5056567;28;20448;-68
2021/03/01 04:39:45;;;;;;;24.07;16.77;;;;;;;0.24;75.66;101652.56;5074070;28;20024;-72
2021/03/01 04:42:12;;;;;;;64.20;37.27;;;;;;;0.22;75.69;101649.84;5074508;28;20063;-68
2021/03/01 04:44:38;;;;;;;29.53;19.50;;;;;;;0.20;75.87;101642.81;5074236;28;20089;-68
2021/03/01 04:47:05;;;;;;;29.57;21.37;;;;;;;0.13;75.85;101638.81;5072718;28;20028;-68
2021/03/01 04:49:31;;;;;;;37.07;23.30;;;;;;;0.14;75.39;101651.66;5061897;28;20095;-74
2021/03/01 04:51:58;;;;;;;33.50;22.03;;;;;;;-0.07;75.93;101642.81;5074036;28;20579;-70
2021/03/01 04:54:24;;;;;;;28.30;19.33;;;;;;;-0.16;76.02;101634.31;5074039;28;20398;-67
2021/03/01 04:56:50;;;;;;;43.07;27.07;;;;;;;-0.16;76.70;101652.09;5074056;28;20150;-69
2021/03/01 04:59:19;;;;;;;32.20;20.00;;;;;;;-0.59;77.32;101592.88;5074353;28;20048;-67
2021/03/01 05:01:47;;;;;;;34.70;23.77;;;;;;;-0.26;77.37;101654.44;5056014;28;20017;-69
2021/03/01 05:04:13;;;;;;;27.20;18.20;;;;;;;-0.28;77.56;101651.75;5069921;28;20045;-70
2021/03/01 05:06:40;;;;;;;26.37;17.67;;;;;;;-0.63;78.04;101605.13;5052898;28;20028;-68
2021/03/01 05:09:06;;;;;;;34.10;21.43;;;;;;;-0.66;78.73;101618.41;5053818;28;20025;-71
2021/03/01 05:11:34;;;;;;;37.53;25.03;;;;;;;-0.44;79.07;101656.03;5053108;28;20067;-68
2021/03/01 05:14:01;;;;;;;33.60;22.37;;;;;;;-0.43;79.43;101652.78;5053882;28;20037;-72
2021/03/01 05:16:28;;;;;;;32.90;20.80;;;;;;;-0.37;79.14;101655.91;5053384;28;20033;-70
2021/03/01 05:18:54;;;;;;;29.57;20.77;;;;;;;-0.35;79.00;101652.78;5053557;28;20566;-70
2021/03/01 05:21:20;;;;;;;32.93;22.60;;;;;;;-0.25;78.92;101658.75;5052901;28;20052;-70
2021/03/01 05:23:45;;;;;;;30.47;20.47;;;;;;;-0.16;78.73;101664.78;5053437;28;20483;-71
2021/03/01 05:26:11;;;;;;;31.37;21.50;;;;;;;-0.09;78.80;101657.00;5053438;28;20025;-67
2021/03/01 05:28:38;;;;;;;37.17;23.30;;;;;;;-0.40;78.18;101594.69;5053384;28;20458;-68
2021/03/01 05:31:04;;;;;;;33.83;23.03;;;;;;;0.06;78.14;101665.22;5052887;28;20060;-70
2021/03/01 05:33:30;;;;;;;31.10;21.17;;;;;;;0.11;78.13;101680.91;5053399;28;20033;-70
2021/03/01 05:35:55;;;;;;;31.77;21.83;;;;;;;-0.01;78.38;101651.03;5052812;28;20075;-70
2021/03/01 05:38:21;;;;;;;30.90;20.87;;;;;;;0.06;78.15;101647.44;5052201;28;20494;-68
2021/03/01 05:40:47;;;;;;;32.77;22.40;;;;;;;0.09;78.51;101663.00;5052922;28;20032;-67
2021/03/01 05:43:13;;;;;;;30.83;21.03;;;;;;;0.21;78.21;101658.22;4952716;28;20041;-72
2021/03/01 05:45:39;;;;;;;31.33;20.50;;;;;;;0.23;78.66;101658.38;5052939;28;20029;-68
2021/03/01 05:48:09;;;;;;;27.23;19.27;;;;;;;0.31;78.00;101642.22;5052552;28;20483;-74
2021/03/01 05:50:35;;;;;;;30.90;19.70;;;;;;;0.40;78.40;101654.91;5052657;28;21058;-75
2021/03/01 05:53:03;;;;;;;29.77;19.63;;;;;;;0.51;78.22;101651.75;5052553;28;20043;-71
2021/03/01 05:55:29;;;;;;;32.57;20.67;;;;;;;0.53;78.43;101654.47;5053395;28;20025;-71
2021/03/01 05:57:58;;;;;;;28.00;19.13;;;;;;;0.50;78.51;101652.53;5057032;28;20025;-71
2021/03/01 06:00:24;;;;;;;28.70;19.92;;;;;;;0.62;78.25;101658.81;5053089;28;20094;-76
2021/03/01 06:02:52;;;;;;;27.57;19.73;;;;;;;0.69;78.58;101661.94;5051853;28;20029;-72
2021/03/01 06:05:18;;;;;;;26.27;18.47;;;;;;;0.87;78.13;101668.75;5052316;28;20074;-76
2021/03/01 06:07:45;;;;;;;27.37;18.13;;;;;;;1.00;77.51;101650.47;5051904;28;20109;-71
2021/03/01 06:10:11;;;;;;;27.97;19.10;;;;;;;1.11;78.56;101626.06;5036755;28;20017;-69
2021/03/01 06:12:37;;;;;;;30.07;20.50;;;;;;;1.42;78.20;101662.88;5051216;28;20036;-72
2021/03/01 06:15:03;;;;;;;29.40;19.87;;;;;;;1.69;77.24;101661.06;5051582;28;20040;-70
2021/03/01 06:17:28;;;;;;;27.33;20.33;;;;;;;1.66;76.17;101635.34;5032917;28;20602;-72
2021/03/01 06:19:56;;;;;;;27.70;20.27;;;;;;;1.96;75.85;101656.72;5034639;28;20123;-71
2021/03/01 06:22:24;;;;;;;27.33;20.20;;;;;;;2.16;75.22;101662.72;5054708;28;20479;-74
2021/03/01 06:25:09;;;;;;;28.43;21.03;;;;;;;2.26;75.20;101638.19;5052572;28;20024;-71
2021/03/01 06:28:00;;;;;;;37.83;25.83;;;;;;;2.49;74.62;101658.84;5051533;28;20029;-72
2021/03/01 06:30:27;;;;;;;62.33;35.77;;;;;;;2.19;74.71;101630.75;5051200;28;20566;-77
2021/03/01 06:33:15;;;;;;;80.60;44.80;;;;;;;2.36;76.43;101665.41;5050626;28;20021;-71
2021/03/01 06:35:44;;;;;;;46.07;31.00;;;;;;;2.62;75.62;101659.19;5057897;28;20471;-70
2021/03/01 06:38:15;;;;;;;;;;;;;;;2.89;74.80;101660.69;5051919;28;20123;-71
2021/03/01 06:40:41;;;;;;;32.10;23.33;;;;;;;2.96;73.98;101651.03;5051889;28;19952;-73
2021/03/01 06:43:14;;;;;;;32.10;23.40;;;;;;;3.06;73.80;101658.69;5051438;28;20029;-73
2021/03/01 06:45:40;;;;;;;33.07;23.67;;;;;;;3.31;73.81;101651.47;5051927;28;20471;-73
2021/03/01 06:48:06;;;;;;;32.20;23.70;;;;;;;3.44;73.65;101640.69;5051669;28;20112;-73
2021/03/01 06:50:45;;;;;;;32.90;23.47;;;;;;;3.48;72.50;101599.31;5067257;28;20131;-73
2021/03/01 06:53:10;;;;;;;33.08;23.13;;;;;;;3.71;71.88;101620.75;5071783;28;20032;-73
2021/03/01 06:55:36;;;;;;;34.37;21.70;;;;;;;4.02;71.33;101649.72;5071630;28;20074;-73
2021/03/01 06:58:16;;;;;;;30.17;21.27;;;;;;;4.20;70.80;101642.69;5066719;28;20025;-73
2021/03/01 07:00:42;;;;;;;26.45;19.75;;;;;;;4.36;70.12;101642.28;5056935;28;20112;-73
2021/03/01 07:03:27;;;;;;;25.77;18.90;;;;;;;4.54;69.59;101654.75;5071560;28;20558;-73
2021/03/01 07:05:56;;;;;;;25.33;17.23;;;;;;;4.57;69.45;101654.09;5070613;28;20101;-73
2021/03/01 07:08:33;;;;;;;27.47;18.17;;;;;;;4.36;70.28;101659.25;5053688;28;20036;-73
2021/03/01 07:10:59;;;;;;;25.87;19.17;;;;;;;4.48;70.84;101654.25;5071593;28;20052;-73
2021/03/01 07:13:30;;;;;;;29.20;19.53;;;;;;;4.65;71.12;101653.94;5071449;28;20056;-73
2021/03/01 07:15:57;;;;;;;24.70;16.67;;;;;;;4.83;69.94;101631.47;5070844;28;20074;-73
2021/03/01 07:18:24;;;;;;;26.07;17.63;;;;;;;4.90;69.42;101629.41;5032098;28;20036;-72
2021/03/01 07:20:49;;;;;;;20.95;13.52;;;;;;;4.98;65.72;101652.25;5064558;28;20550;-73
2021/03/01 07:23:16;;;;;;;20.00;12.68;;;;;;;5.07;63.77;101638.41;5071064;28;20108;-73
2021/03/01 07:25:45;;;;;;;17.08;11.00;;;;;;;4.97;62.75;101645.38;5070836;28;20453;-73
2021/03/01 07:31:35;;;;;;;15.35;10.30;;;;;;;5.11;63.43;101648.09;5103296;22;20064;-73
2021/03/01 07:34:08;;;;;;;19.48;11.30;;;;;;;5.39;63.30;101648.56;5031550;28;20029;-73
2021/03/01 07:36:34;;;;;;;15.57;10.55;;;;;;;5.01;62.93;101621.78;5028528;28;20114;-73
2021/03/01 07:39:01;;;;;;;14.80;9.90;;;;;;;5.24;62.71;101655.97;5017449;28;20083;-73
2021/03/01 07:41:30;;;;;;;15.77;9.57;;;;;;;5.28;62.27;101641.72;5031000;28;20045;-73
2021/03/01 07:43:57;;;;;;;22.98;11.27;;;;;;;5.39;63.10;101648.56;5031457;28;20037;-73
2021/03/01 07:46:25;;;;;;;16.75;10.82;;;;;;;5.56;62.05;101649.88;5031045;28;20035;-73
2021/03/01 07:48:51;;;;;;;15.32;10.35;;;;;;;5.64;61.29;101643.63;5031301;28;20432;-72
2021/03/01 07:51:44;;;;;;;16.15;10.85;;;;;;;5.83;61.48;101642.47;5030435;28;20105;-73
2021/03/01 07:54:15;;;;;;;17.52;11.00;;;;;;;5.97;63.27;101631.59;5031203;28;20029;-73
2021/03/01 07:56:40;;;;;;;14.90;10.00;;;;;;;6.17;62.13;101634.78;5030939;28;20032;-73
2021/03/01 07:59:29;;;;;;;15.43;9.55;;;;;;;6.22;61.18;101628.31;4969664;28;20042;-73
2021/03/01 08:02:15;;;;;;;15.67;10.13;;;;;;;6.28;62.60;101592.84;4970740;28;20045;-73
2021/03/01 08:04:41;;;;;;;14.70;9.57;;;;;;;6.46;59.92;101613.78;4953437;28;20047;-73
2021/03/01 08:07:07;;;;;;;14.88;9.48;;;;;;;6.70;60.58;101603.50;4962869;28;20031;-73
2021/03/01 08:09:46;;;;;;;14.38;9.70;;;;;;;6.88;58.56;101619.31;4965424;28;20043;-73
2021/03/01 08:12:24;;;;;;;15.70;9.35;;;;;;;6.64;59.36;101628.72;4972549;28;20049;-74
2021/03/01 08:14:52;;;;;;;16.83;10.10;;;;;;;6.79;60.06;101623.78;4969561;28;20058;-73
2021/03/01 08:17:30;;;;;;;13.93;10.43;;;;;;;6.97;59.86;101613.94;4970427;28;20499;-73
2021/03/01 08:19:56;;;;;;;34.83;16.63;;;;;;;7.06;58.90;101617.13;4963654;28;20089;-73
2021/03/01 08:22:22;;;;;;;93.85;35.15;;;;;;;7.13;58.03;101603.94;4973001;28;20039;-73
2021/03/01 08:24:47;;;;;;;15.70;10.85;;;;;;;7.11;59.42;101620.91;4973026;28;20117;-73
2021/03/01 08:27:25;;;;;;;21.02;11.23;;;;;;;7.18;59.16;101619.66;4972995;28;20173;-73
2021/03/01 08:30:22;;;;;;;16.05;10.75;;;;;;;7.09;59.65;101608.75;4976850;28;20037;-73
2021/03/01 08:33:09;;;;;;;17.42;11.43;;;;;;;7.44;60.76;101606.03;5034154;28;20029;-73
2021/03/01 08:35:36;;;;;;;24.60;11.60;;;;;;;7.29;59.75;101553.63;5034694;28;20069;-73
2021/03/01 08:38:02;;;;;;;25.98;13.32;;;;;;;7.61;59.95;101599.47;5034169;28;20052;-73
2021/03/01 08:40:28;;;;;;;37.50;18.52;;;;;;;7.74;58.04;101621.75;5034257;28;20112;-73
2021/03/01 08:43:13;;;;;;;35.33;19.92;;;;;;;7.73;59.08;101629.38;5034001;28;20029;-73
2021/03/01 08:45:43;;;;;;;20.98;13.93;;;;;;;7.67;58.43;101613.53;5032361;28;20048;-73
2021/03/01 08:48:17;;;;;;;14.30;10.60;;;;;;;7.76;57.33;101627.91;5034095;28;20025;-73
2021/03/01 08:50:43;;;;;;;20.05;13.60;;;;;;;7.88;59.83;101630.38;5034346;28;20108;-76
2021/03/01 08:53:10;;;;;;;15.27;10.60;;;;;;;7.90;59.35;101636.53;5030507;28;20025;-75
2021/03/01 08:55:39;;;;;;;17.23;12.98;;;;;;;7.90;58.74;101628.81;5030623;28;20021;-75
2021/03/01 08:58:12;;;;;;;18.42;12.27;;;;;;;8.06;58.31;101637.53;5034651;28;20470;-75
2021/03/01 09:00:49;;;;;;;14.48;9.98;;;;;;;8.21;56.75;101633.41;5034141;28;20464;-75
2021/03/01 09:03:18;;;;;;;18.73;11.88;;;;;;;8.34;56.60;101634.19;5016319;28;20036;-75
2021/03/01 09:05:46;;;;;;;47.83;24.45;;;;;;;8.41;56.65;101636.34;5034347;28;20442;-75
2021/03/01 09:08:12;;;;;;;59.90;27.65;;;;;;;8.43;57.33;101634.78;5034844;28;20109;-75
2021/03/01 09:10:43;;;;;;;91.60;35.35;;;;;;;8.34;56.33;101618.75;5034243;28;20120;-75
2021/03/01 09:13:14;;;;;;;46.03;18.88;;;;;;;8.37;57.40;101598.34;5034096;28;20088;-75
2021/03/01 09:15:40;;;;;;;92.78;34.50;;;;;;;8.39;56.98;101596.78;5034328;28;20032;-75
2021/03/01 09:18:08;;;;;;;262.30;84.07;;;;;;;8.68;58.84;101626.97;5034398;28;20026;-75
2021/03/01 09:20:41;;;;;;;21.30;14.07;;;;;;;8.61;55.60;101595.59;5034407;28;20065;-75
2021/03/01 09:23:07;;;;;;;27.40;14.65;;;;;;;9.06;56.04;101627.59;5034452;28;20082;-75
2021/03/01 09:25:34;;;;;;;23.75;11.10;;;;;;;9.28;54.75;101631.47;5033715;28;20484;-75
2021/03/01 09:28:00;;;;;;;32.03;12.15;;;;;;;9.42;53.85;101624.56;5034150;28;20030;-75
2021/03/01 09:30:27;;;;;;;19.85;10.57;;;;;;;9.51;53.50;101613.13;5034035;28;20068;-75
2021/03/01 09:32:58;;;;;;;17.23;9.35;;;;;;;9.60;51.10;101628.25;5033965;28;20071;-75
2021/03/01 09:35:24;;;;;;;18.55;9.95;;;;;;;9.35;50.36;101587.25;5034004;28;20025;-75
2021/03/01 09:37:51;;;;;;;27.27;9.10;;;;;;;9.81;47.44;101626.06;5030987;28;20412;-75
2021/03/01 09:40:22;;;;;;;12.65;7.82;;;;;;;10.06;46.71;101621.47;5033040;28;20029;-74
2021/03/01 09:42:51;;;;;;;28.50;12.95;;;;;;;10.18;48.97;101628.19;5030597;28;20102;-73
2021/03/01 09:45:18;;;;;;;18.00;8.52;;;;;;;10.22;49.29;101629.25;5032490;28;20476;-75
2021/03/01 09:47:46;;;;;;;13.35;7.57;;;;;;;10.16;49.22;101597.94;5033734;28;20515;-72
2021/03/01 09:50:12;;;;;;;23.83;11.63;;;;;;;10.40;49.30;101618.22;5033374;28;20048;-72
2021/03/01 09:52:39;;;;;;;14.35;9.15;;;;;;;10.33;49.31;101628.19;5026221;28;20045;-71
2021/03/01 09:55:05;;;;;;;12.50;8.40;;;;;;;10.30;47.94;101611.63;5014868;28;20033;-74
2021/03/01 09:57:31;;;;;;;20.25;10.82;;;;;;;10.43;49.30;101611.56;5013262;28;20061;-75
2021/03/01 09:59:57;;;;;;;13.20;8.00;;;;;;;10.53;48.52;101612.97;5013344;28;20139;-72
2021/03/01 10:02:26;;;;;;;11.07;7.95;;;;;;;10.57;48.32;101621.75;5013629;28;20080;-70
2021/03/01 10:05:08;;;;;;;14.52;8.10;;;;;;;10.53;46.89;101618.13;5013436;28;20030;-72
2021/03/01 10:07:33;;;;;;;20.73;14.43;;;;;;;10.45;49.50;101617.66;5002166;28;20162;-72
2021/03/01 10:10:11;;;;;;;17.73;11.88;;;;;;;10.43;47.47;101610.66;5033325;28;20503;-75
2021/03/01 10:12:46;;;;;;;24.00;13.25;;;;;;;10.25;47.81;101601.03;5033131;28;20112;-71
2021/03/01 10:15:12;;;;;;;36.63;17.13;;;;;;;10.28;46.77;101608.97;5032555;28;20545;-72
2021/03/01 10:17:38;;;;;;;18.48;11.15;;;;;;;10.12;47.39;101609.78;5032650;28;20503;-74
2021/03/01 10:20:13;;;;;;;18.77;11.77;;;;;;;9.95;46.92;101607.94;5033230;28;20032;-74
2021/03/01 10:22:58;;;;;;;16.95;8.77;;;;;;;9.97;47.10;101617.53;5032862;28;20442;-73
2021/03/01 10:25:31;;;;;;;13.48;9.48;;;;;;;9.82;46.93;101594.31;5032300;28;20021;-76
2021/03/01 10:27:57;;;;;;;10.70;8.00;;;;;;;9.99;48.15;101615.03;5015324;28;20030;-75
2021/03/01 10:30:22;;;;;;;16.08;10.38;;;;;;;9.78;47.96;101588.88;5014724;28;20049;-74
2021/03/01 10:32:48;;;;;;;17.55;10.13;;;;;;;9.84;49.38;101620.19;5032267;28;20032;-74
2021/03/01 10:35:18;;;;;;;24.45;13.20;;;;;;;9.60;49.12;101597.31;5032253;28;20454;-72
2021/03/01 10:38:01;;;;;;;12.90;8.80;;;;;;;9.86;47.94;101618.59;5032382;28;20036;-72
2021/03/01 10:40:27;;;;;;;35.58;20.13;;;;;;;9.90;48.52;101623.13;5032824;28;20037;-73
2021/03/01 10:42:52;;;;;;;15.73;10.68;;;;;;;9.73;46.66;101582.56;5031771;28;20494;-74
2021/03/01 10:45:19;;;;;;;18.70;9.95;;;;;;;9.76;46.98;101622.31;5032692;28;20490;-73
2021/03/01 10:47:58;;;;;;;30.48;19.15;;;;;;;9.47;46.37;101606.03;5032023;28;20069;-71
2021/03/01 10:50:23;;;;;;;19.95;12.88;;;;;;;9.28;46.51;101596.28;5030654;28;20033;-73
2021/03/01 10:52:50;;;;;;;22.83;14.65;;;;;;;9.50;46.79;101620.78;5031130;28;20498;-74
2021/03/01 10:55:15;;;;;;;18.17;9.68;;;;;;;9.41;47.56;101592.78;5032098;28;20049;-75
2021/03/01 10:57:41;;;;;;;15.75;11.35;;;;;;;9.26;46.91;101582.44;5030716;28;20079;-74
2021/03/01 11:00:07;;;;;;;13.00;8.57;;;;;;;9.48;45.75;101624.94;5034317;28;20079;-75
2021/03/01 11:02:32;;;;;;;14.43;8.20;;;;;;;9.42;46.70;101612.59;4997350;28;20053;-72
2021/03/01 11:04:58;;;;;;;15.65;9.65;;;;;;;9.37;48.13;101621.72;5032029;28;20026;-74
2021/03/01 11:07:25;;;;;;;12.90;8.45;;;;;;;9.39;46.53;101617.56;5029773;28;20037;-75
2021/03/01 11:09:51;;;;;;;11.82;8.30;;;;;;;9.36;48.38;101602.78;5031679;28;20442;-72
2021/03/01 11:12:17;;;;;;;12.32;7.90;;;;;;;9.42;46.41;101601.38;5037749;28;20039;-75
2021/03/01 11:14:42;;;;;;;13.57;7.38;;;;;;;9.24;48.76;101584.03;5022271;28;20029;-71
2021/03/01 11:17:08;;;;;;;41.15;16.90;;;;;;;9.31;45.92;101609.38;5031090;28;20022;-74
2021/03/01 11:19:34;;;;;;;83.32;31.45;;;;;;;9.49;47.20;101614.72;5031494;28;20076;-72
2021/03/01 11:22:00;;;;;;;49.03;22.52;;;;;;;9.55;47.56;101617.66;5031383;28;20026;-72
2021/03/01 11:24:26;;;;;;;21.65;10.50;;;;;;;9.53;46.95;101619.28;5031461;28;20500;-73
2021/03/01 11:26:53;;;;;;;18.65;10.82;;;;;;;9.64;48.82;101616.44;5032043;28;20040;-74
2021/03/01 11:29:20;;;;;;;22.65;12.38;;;;;;;9.63;46.99;101609.50;5014128;28;20072;-74